sensor_id;sensor_type;location;lat;lon;timestamp;temperature;humidity
23748;DHT22;12054;53.662;10.126;2023-03-31T00:01:31;11.40;99.90
23748;DHT22;12054;53.662;10.126;2023-03-31T00:03:58;11.40;99.90
23748;DHT22;12054;53.662;10.126;2023-03-31T00:06:35;11.40;99.90
23748;DHT22;12054;53.662;10.126;2023-03-31T00:09:15;11.40;99.90
23748;DHT22;12054;53.662;10.126;2023-03-31T00:11:46;11.40;99.90
23748;DHT22;12054;53.662;10.126;2023-03-31T00:14:11;11.40;99.90
23748;DHT22;12054;53.662;10.126;2023-03-31T00:16:37;11.40;99.90
23748;DHT22;12054;53.662;10.126;2023-03-31T00:19:04;11.40;99.90
23748;DHT22;12054;53.662;10.126;2023-03-31T00:21:31;11.40;99.90
23748;DHT22;12054;53.662;10.126;2023-03-31T00:24:11;11.40;99.90
23748;DHT22;12054;53.662;10.126;2023-03-31T00:26:37;11.40;99.90
23748;DHT22;12054;53.662;10.126;2023-03-31T00:29:05;11.40;99.90
23748;DHT22;12054;53.662;10.126;2023-03-31T00:31:30;11.40;99.90
23748;DHT22;12054;53.662;10.126;2023-03-31T00:33:56;11.40;99.90
23748;DHT22;12054;53.662;10.126;2023-03-31T00:36:22;11.40;99.90
23748;DHT22;12054;53.662;10.126;2023-03-31T00:38:57;11.40;99.90
23748;DHT22;12054;53.662;10.126;2023-03-31T00:41:35;11.40;99.90
23748;DHT22;12054;53.662;10.126;2023-03-31T00:44:18;11.40;99.90
23748;DHT22;12054;53.662;10.126;2023-03-31T00:49:46;11.30;99.90
23748;DHT22;12054;53.662;10.126;2023-03-31T00:52:18;11.30;99.90
23748;DHT22;12054;53.662;10.126;2023-03-31T00:54:51;11.30;99.90
23748;DHT22;12054;53.662;10.126;2023-03-31T00:57:19;11.30;99.90
23748;DHT22;12054;53.662;10.126;2023-03-31T00:59:49;11.30;99.90
23748;DHT22;12054;53.662;10.126;2023-03-31T01:02:16;11.30;99.90
23748;DHT22;12054;53.662;10.126;2023-03-31T01:04:47;11.30;99.90
23748;DHT22;12054;53.662;10.126;2023-03-31T01:07:21;11.30;99.90
23748;DHT22;12054;53.662;10.126;2023-03-31T01:09:49;11.30;99.90
23748;DHT22;12054;53.662;10.126;2023-03-31T01:12:17;11.30;99.90
23748;DHT22;12054;53.662;10.126;2023-03-31T01:14:43;11.30;99.90
23748;DHT22;12054;53.662;10.126;2023-03-31T01:17:09;11.30;99.90
23748;DHT22;12054;53.662;10.126;2023-03-31T01:42:16;11.20;99.90
23748;DHT22;12054;53.662;10.126;2023-03-31T01:44:57;11.20;99.90
23748;DHT22;12054;53.662;10.126;2023-03-31T01:47:39;11.10;99.90
23748;DHT22;12054;53.662;10.126;2023-03-31T01:50:30;11.20;99.90
23748;DHT22;12054;53.662;10.126;2023-03-31T01:53:02;11.20;99.90
23748;DHT22;12054;53.662;10.126;2023-03-31T01:55:38;11.20;99.90
23748;DHT22;12054;53.662;10.126;2023-03-31T01:58:12;11.20;99.90
23748;DHT22;12054;53.662;10.126;2023-03-31T02:00:46;11.20;99.90
23748;DHT22;12054;53.662;10.126;2023-03-31T02:03:21;11.20;99.90
23748;DHT22;12054;53.662;10.126;2023-03-31T02:05:57;11.20;99.90
23748;DHT22;12054;53.662;10.126;2023-03-31T02:08:30;11.20;99.90
23748;DHT22;12054;53.662;10.126;2023-03-31T02:10:56;11.10;99.90
23748;DHT22;12054;53.662;10.126;2023-03-31T02:13:26;11.20;99.90
23748;DHT22;12054;53.662;10.126;2023-03-31T02:15:56;11.20;99.90
23748;DHT22;12054;53.662;10.126;2023-03-31T02:18:26;11.20;99.90
23748;DHT22;12054;53.662;10.126;2023-03-31T02:20:56;11.20;99.90
23748;DHT22;12054;53.662;10.126;2023-03-31T02:23:24;11.20;99.90
23748;DHT22;12054;53.662;10.126;2023-03-31T02:25:59;11.20;99.90
23748;DHT22;12054;53.662;10.126;2023-03-31T02:28:26;11.20;99.90
23748;DHT22;12054;53.662;10.126;2023-03-31T02:33:35;11.20;99.90
23748;DHT22;12054;53.662;10.126;2023-03-31T02:36:01;11.20;99.90
23748;DHT22;12054;53.662;10.126;2023-03-31T02:38:27;11.20;99.90
23748;DHT22;12054;53.662;10.126;2023-03-31T02:40:55;11.20;99.90
23748;DHT22;12054;53.662;10.126;2023-03-31T02:43:21;11.20;99.90
23748;DHT22;12054;53.662;10.126;2023-03-31T02:45:48;11.20;99.90
23748;DHT22;12054;53.662;10.126;2023-03-31T02:48:20;11.20;99.90
23748;DHT22;12054;53.662;10.126;2023-03-31T02:53:42;11.20;99.90
23748;DHT22;12054;53.662;10.126;2023-03-31T03:04:46;11.20;99.90
23748;DHT22;12054;53.662;10.126;2023-03-31T03:07:24;11.20;99.90
23748;DHT22;12054;53.662;10.126;2023-03-31T03:10:01;11.10;99.90
23748;DHT22;12054;53.662;10.126;2023-03-31T03:12:45;11.10;99.90
23748;DHT22;12054;53.662;10.126;2023-03-31T03:15:29;11.10;99.90
23748;DHT22;12054;53.662;10.126;2023-03-31T03:17:57;11.10;99.90
23748;DHT22;12054;53.662;10.126;2023-03-31T03:20:23;11.10;99.90
23748;DHT22;12054;53.662;10.126;2023-03-31T03:22:50;11.10;99.90
23748;DHT22;12054;53.662;10.126;2023-03-31T03:25:16;11.10;99.90
23748;DHT22;12054;53.662;10.126;2023-03-31T03:27:42;11.10;99.90
23748;DHT22;12054;53.662;10.126;2023-03-31T03:30:10;11.10;99.90
23748;DHT22;12054;53.662;10.126;2023-03-31T03:32:36;11.10;99.90
23748;DHT22;12054;53.662;10.126;2023-03-31T03:35:03;11.10;99.90
23748;DHT22;12054;53.662;10.126;2023-03-31T03:37:30;11.10;99.90
23748;DHT22;12054;53.662;10.126;2023-03-31T03:39:55;11.10;99.90
23748;DHT22;12054;53.662;10.126;2023-03-31T03:42:21;11.10;99.90
23748;DHT22;12054;53.662;10.126;2023-03-31T03:44:47;11.10;99.90
23748;DHT22;12054;53.662;10.126;2023-03-31T03:47:12;11.10;99.90
23748;DHT22;12054;53.662;10.126;2023-03-31T03:49:38;11.00;99.90
23748;DHT22;12054;53.662;10.126;2023-03-31T03:52:04;11.10;99.90
23748;DHT22;12054;53.662;10.126;2023-03-31T03:54:29;11.10;99.90
23748;DHT22;12054;53.662;10.126;2023-03-31T03:56:55;11.10;99.90
23748;DHT22;12054;53.662;10.126;2023-03-31T03:59:20;11.10;99.90
23748;DHT22;12054;53.662;10.126;2023-03-31T04:01:46;11.10;99.90
23748;DHT22;12054;53.662;10.126;2023-03-31T04:04:12;11.10;99.90
23748;DHT22;12054;53.662;10.126;2023-03-31T04:06:37;11.10;99.90
23748;DHT22;12054;53.662;10.126;2023-03-31T04:09:03;11.10;99.90
23748;DHT22;12054;53.662;10.126;2023-03-31T04:11:30;11.10;99.90
23748;DHT22;12054;53.662;10.126;2023-03-31T04:13:55;11.10;99.90
23748;DHT22;12054;53.662;10.126;2023-03-31T04:16:21;11.10;99.90
23748;DHT22;12054;53.662;10.126;2023-03-31T04:18:52;11.10;99.90
23748;DHT22;12054;53.662;10.126;2023-03-31T04:21:21;11.10;99.90
23748;DHT22;12054;53.662;10.126;2023-03-31T04:23:49;11.10;99.90
23748;DHT22;12054;53.662;10.126;2023-03-31T04:26:17;11.10;99.90
23748;DHT22;12054;53.662;10.126;2023-03-31T04:28:43;11.10;99.90
23748;DHT22;12054;53.662;10.126;2023-03-31T04:31:12;11.10;99.90
23748;DHT22;12054;53.662;10.126;2023-03-31T04:33:50;11.10;99.90
23748;DHT22;12054;53.662;10.126;2023-03-31T04:36:16;11.10;99.90
23748;DHT22;12054;53.662;10.126;2023-03-31T04:38:46;11.10;99.90
23748;DHT22;12054;53.662;10.126;2023-03-31T04:41:12;11.10;99.90
23748;DHT22;12054;53.662;10.126;2023-03-31T04:43:38;11.10;99.90
23748;DHT22;12054;53.662;10.126;2023-03-31T04:46:04;11.10;99.90
23748;DHT22;12054;53.662;10.126;2023-03-31T04:48:30;11.10;99.90
23748;DHT22;12054;53.662;10.126;2023-03-31T04:50:55;11.10;99.90
23748;DHT22;12054;53.662;10.126;2023-03-31T04:53:21;11.10;99.90
23748;DHT22;12054;53.662;10.126;2023-03-31T04:55:48;11.10;99.90
23748;DHT22;12054;53.662;10.126;2023-03-31T04:58:14;11.10;99.90
23748;DHT22;12054;53.662;10.126;2023-03-31T05:00:41;11.10;99.90
23748;DHT22;12054;53.662;10.126;2023-03-31T05:03:07;11.10;99.90
23748;DHT22;12054;53.662;10.126;2023-03-31T05:05:34;11.00;99.90
23748;DHT22;12054;53.662;10.126;2023-03-31T05:08:00;11.10;99.90
23748;DHT22;12054;53.662;10.126;2023-03-31T05:10:26;11.10;99.90
23748;DHT22;12054;53.662;10.126;2023-03-31T05:12:52;11.00;99.90
23748;DHT22;12054;53.662;10.126;2023-03-31T05:15:17;11.10;99.90
23748;DHT22;12054;53.662;10.126;2023-03-31T05:17:43;11.00;99.90
23748;DHT22;12054;53.662;10.126;2023-03-31T05:20:10;11.10;99.90
23748;DHT22;12054;53.662;10.126;2023-03-31T05:22:37;11.10;99.90
23748;DHT22;12054;53.662;10.126;2023-03-31T05:25:04;11.10;99.90
23748;DHT22;12054;53.662;10.126;2023-03-31T05:27:31;11.10;99.90
23748;DHT22;12054;53.662;10.126;2023-03-31T05:29:56;11.00;99.90
23748;DHT22;12054;53.662;10.126;2023-03-31T05:32:23;11.10;99.90
23748;DHT22;12054;53.662;10.126;2023-03-31T05:34:48;11.10;99.90
23748;DHT22;12054;53.662;10.126;2023-03-31T05:37:17;11.10;99.90
23748;DHT22;12054;53.662;10.126;2023-03-31T05:39:43;11.00;99.90
23748;DHT22;12054;53.662;10.126;2023-03-31T05:42:08;11.10;99.90
23748;DHT22;12054;53.662;10.126;2023-03-31T05:44:33;11.10;99.90
23748;DHT22;12054;53.662;10.126;2023-03-31T05:46:59;11.10;99.90
23748;DHT22;12054;53.662;10.126;2023-03-31T05:49:25;11.10;99.90
23748;DHT22;12054;53.662;10.126;2023-03-31T05:51:50;11.10;99.90
23748;DHT22;12054;53.662;10.126;2023-03-31T05:54:18;11.10;99.90
23748;DHT22;12054;53.662;10.126;2023-03-31T05:56:44;11.10;99.90
23748;DHT22;12054;53.662;10.126;2023-03-31T05:59:09;11.10;99.90
23748;DHT22;12054;53.662;10.126;2023-03-31T06:01:35;11.10;99.90
23748;DHT22;12054;53.662;10.126;2023-03-31T06:04:00;11.10;99.90
23748;DHT22;12054;53.662;10.126;2023-03-31T06:06:26;11.10;99.90
23748;DHT22;12054;53.662;10.126;2023-03-31T06:08:52;11.10;99.90
23748;DHT22;12054;53.662;10.126;2023-03-31T06:11:20;11.10;99.90
23748;DHT22;12054;53.662;10.126;2023-03-31T06:13:46;11.10;99.90
23748;DHT22;12054;53.662;10.126;2023-03-31T06:16:12;11.10;99.90
23748;DHT22;12054;53.662;10.126;2023-03-31T06:18:39;11.10;99.90
23748;DHT22;12054;53.662;10.126;2023-03-31T06:21:05;11.10;99.90
23748;DHT22;12054;53.662;10.126;2023-03-31T06:23:32;11.10;99.90
23748;DHT22;12054;53.662;10.126;2023-03-31T06:26:06;11.10;99.90
23748;DHT22;12054;53.662;10.126;2023-03-31T06:28:33;11.20;99.90
23748;DHT22;12054;53.662;10.126;2023-03-31T06:31:04;11.20;99.90
23748;DHT22;12054;53.662;10.126;2023-03-31T06:33:31;11.20;99.90
23748;DHT22;12054;53.662;10.126;2023-03-31T06:35:57;11.20;99.90
23748;DHT22;12054;53.662;10.126;2023-03-31T06:38:24;11.20;99.90
23748;DHT22;12054;53.662;10.126;2023-03-31T06:40:50;11.20;99.90
23748;DHT22;12054;53.662;10.126;2023-03-31T06:43:16;11.20;99.90
23748;DHT22;12054;53.662;10.126;2023-03-31T06:45:41;11.20;99.90
23748;DHT22;12054;53.662;10.126;2023-03-31T06:48:07;11.20;99.90
23748;DHT22;12054;53.662;10.126;2023-03-31T06:50:32;11.30;99.90
23748;DHT22;12054;53.662;10.126;2023-03-31T06:52:58;11.30;99.90
23748;DHT22;12054;53.662;10.126;2023-03-31T06:55:24;11.20;99.90
23748;DHT22;12054;53.662;10.126;2023-03-31T06:57:50;11.20;99.90
23748;DHT22;12054;53.662;10.126;2023-03-31T07:00:16;11.20;99.90
23748;DHT22;12054;53.662;10.126;2023-03-31T07:02:42;11.30;99.90
23748;DHT22;12054;53.662;10.126;2023-03-31T07:05:08;11.30;99.90
23748;DHT22;12054;53.662;10.126;2023-03-31T07:07:34;11.20;99.90
23748;DHT22;12054;53.662;10.126;2023-03-31T07:10:00;11.30;99.90
23748;DHT22;12054;53.662;10.126;2023-03-31T07:12:25;11.30;99.90
23748;DHT22;12054;53.662;10.126;2023-03-31T07:14:51;11.30;99.90
23748;DHT22;12054;53.662;10.126;2023-03-31T07:17:19;11.30;99.90
23748;DHT22;12054;53.662;10.126;2023-03-31T07:19:45;11.30;99.90
23748;DHT22;12054;53.662;10.126;2023-03-31T07:22:13;11.40;99.90
23748;DHT22;12054;53.662;10.126;2023-03-31T07:24:39;11.40;99.90
23748;DHT22;12054;53.662;10.126;2023-03-31T07:27:04;11.40;99.90
23748;DHT22;12054;53.662;10.126;2023-03-31T07:29:30;11.40;99.90
23748;DHT22;12054;53.662;10.126;2023-03-31T07:31:56;11.40;99.90
23748;DHT22;12054;53.662;10.126;2023-03-31T07:34:21;11.40;99.90
23748;DHT22;12054;53.662;10.126;2023-03-31T07:36:47;11.50;99.90
23748;DHT22;12054;53.662;10.126;2023-03-31T07:39:12;11.50;99.90
23748;DHT22;12054;53.662;10.126;2023-03-31T07:41:38;11.50;99.90
23748;DHT22;12054;53.662;10.126;2023-03-31T07:44:04;11.50;99.90
23748;DHT22;12054;53.662;10.126;2023-03-31T07:46:29;11.60;99.90
23748;DHT22;12054;53.662;10.126;2023-03-31T07:48:56;11.60;99.90
23748;DHT22;12054;53.662;10.126;2023-03-31T07:51:24;11.60;99.90
23748;DHT22;12054;53.662;10.126;2023-03-31T07:53:51;11.70;99.90
23748;DHT22;12054;53.662;10.126;2023-03-31T07:56:18;11.70;99.90
23748;DHT22;12054;53.662;10.126;2023-03-31T07:58:44;11.70;99.90
23748;DHT22;12054;53.662;10.126;2023-03-31T08:01:16;11.70;99.90
23748;DHT22;12054;53.662;10.126;2023-03-31T08:03:47;11.70;99.90
23748;DHT22;12054;53.662;10.126;2023-03-31T08:06:21;11.70;99.90
23748;DHT22;12054;53.662;10.126;2023-03-31T08:08:48;11.70;99.90
23748;DHT22;12054;53.662;10.126;2023-03-31T08:11:14;11.70;99.90
23748;DHT22;12054;53.662;10.126;2023-03-31T08:13:40;11.70;99.90
23748;DHT22;12054;53.662;10.126;2023-03-31T08:16:06;11.70;99.90
23748;DHT22;12054;53.662;10.126;2023-03-31T08:18:31;11.70;99.90
23748;DHT22;12054;53.662;10.126;2023-03-31T08:20:57;11.70;99.90
23748;DHT22;12054;53.662;10.126;2023-03-31T08:23:22;11.80;99.90
23748;DHT22;12054;53.662;10.126;2023-03-31T08:25:48;11.70;99.90
23748;DHT22;12054;53.662;10.126;2023-03-31T08:28:14;11.70;99.90
23748;DHT22;12054;53.662;10.126;2023-03-31T08:30:40;11.80;99.90
23748;DHT22;12054;53.662;10.126;2023-03-31T08:33:06;11.60;99.90
23748;DHT22;12054;53.662;10.126;2023-03-31T08:35:35;11.70;99.90
23748;DHT22;12054;53.662;10.126;2023-03-31T08:38:00;11.60;99.90
23748;DHT22;12054;53.662;10.126;2023-03-31T08:40:27;11.60;99.90
23748;DHT22;12054;53.662;10.126;2023-03-31T08:43:17;11.60;99.90
23748;DHT22;12054;53.662;10.126;2023-03-31T08:45:47;11.60;99.90
23748;DHT22;12054;53.662;10.126;2023-03-31T08:48:44;11.60;99.90
23748;DHT22;12054;53.662;10.126;2023-03-31T08:51:20;11.60;99.90
23748;DHT22;12054;53.662;10.126;2023-03-31T08:53:51;11.60;99.90
23748;DHT22;12054;53.662;10.126;2023-03-31T08:56:21;11.60;99.90
23748;DHT22;12054;53.662;10.126;2023-03-31T08:58:49;11.60;99.90
23748;DHT22;12054;53.662;10.126;2023-03-31T09:12:55;11.60;99.90
23748;DHT22;12054;53.662;10.126;2023-03-31T09:15:28;11.60;99.90
23748;DHT22;12054;53.662;10.126;2023-03-31T09:18:02;11.60;99.90
23748;DHT22;12054;53.662;10.126;2023-03-31T09:20:36;11.60;99.90
23748;DHT22;12054;53.662;10.126;2023-03-31T09:23:17;11.60;99.90
23748;DHT22;12054;53.662;10.126;2023-03-31T09:25:46;11.50;99.90
23748;DHT22;12054;53.662;10.126;2023-03-31T09:28:25;11.50;99.90
23748;DHT22;12054;53.662;10.126;2023-03-31T09:30:54;11.50;99.90
23748;DHT22;12054;53.662;10.126;2023-03-31T09:33:26;11.50;99.90
23748;DHT22;12054;53.662;10.126;2023-03-31T09:36:00;11.50;99.90
23748;DHT22;12054;53.662;10.126;2023-03-31T09:38:25;11.50;99.90
23748;DHT22;12054;53.662;10.126;2023-03-31T09:41:00;11.50;99.90
23748;DHT22;12054;53.662;10.126;2023-03-31T09:43:28;11.50;99.90
23748;DHT22;12054;53.662;10.126;2023-03-31T09:45:56;11.50;99.90
23748;DHT22;12054;53.662;10.126;2023-03-31T09:48:26;11.60;99.90
23748;DHT22;12054;53.662;10.126;2023-03-31T09:51:04;11.60;99.90
23748;DHT22;12054;53.662;10.126;2023-03-31T09:53:42;11.60;99.90
23748;DHT22;12054;53.662;10.126;2023-03-31T09:56:10;11.60;99.90
23748;DHT22;12054;53.662;10.126;2023-03-31T09:58:45;11.60;99.90
23748;DHT22;12054;53.662;10.126;2023-03-31T10:01:12;11.60;99.90
23748;DHT22;12054;53.662;10.126;2023-03-31T10:03:52;11.60;99.90
23748;DHT22;12054;53.662;10.126;2023-03-31T10:06:19;11.60;99.90
23748;DHT22;12054;53.662;10.126;2023-03-31T10:08:54;11.60;99.90
23748;DHT22;12054;53.662;10.126;2023-03-31T10:11:22;11.60;99.90
23748;DHT22;12054;53.662;10.126;2023-03-31T10:13:53;11.70;99.90
23748;DHT22;12054;53.662;10.126;2023-03-31T10:16:41;11.70;99.90
23748;DHT22;12054;53.662;10.126;2023-03-31T10:19:17;11.70;99.90
23748;DHT22;12054;53.662;10.126;2023-03-31T10:21:46;11.70;99.90
23748;DHT22;12054;53.662;10.126;2023-03-31T10:24:17;11.70;99.90
23748;DHT22;12054;53.662;10.126;2023-03-31T10:26:51;11.70;99.90
23748;DHT22;12054;53.662;10.126;2023-03-31T10:29:22;11.70;99.90
23748;DHT22;12054;53.662;10.126;2023-03-31T10:31:51;11.80;99.90
23748;DHT22;12054;53.662;10.126;2023-03-31T10:34:17;11.80;99.90
23748;DHT22;12054;53.662;10.126;2023-03-31T10:36:48;11.80;99.90
23748;DHT22;12054;53.662;10.126;2023-03-31T10:39:17;11.80;99.90
23748;DHT22;12054;53.662;10.126;2023-03-31T10:41:49;11.80;99.90
23748;DHT22;12054;53.662;10.126;2023-03-31T10:44:34;11.70;99.90
23748;DHT22;12054;53.662;10.126;2023-03-31T10:47:16;11.70;99.90
23748;DHT22;12054;53.662;10.126;2023-03-31T10:49:43;11.70;99.90
23748;DHT22;12054;53.662;10.126;2023-03-31T10:52:24;11.80;99.90
23748;DHT22;12054;53.662;10.126;2023-03-31T10:54:59;11.80;99.90
23748;DHT22;12054;53.662;10.126;2023-03-31T10:57:49;11.80;99.90
23748;DHT22;12054;53.662;10.126;2023-03-31T11:00:20;11.80;99.90
23748;DHT22;12054;53.662;10.126;2023-03-31T11:05:41;11.90;99.90
23748;DHT22;12054;53.662;10.126;2023-03-31T11:08:19;11.90;99.90
23748;DHT22;12054;53.662;10.126;2023-03-31T11:14:00;11.90;99.90
23748;DHT22;12054;53.662;10.126;2023-03-31T11:37:46;12.00;99.90
23748;DHT22;12054;53.662;10.126;2023-03-31T11:43:32;12.00;99.90
23748;DHT22;12054;53.662;10.126;2023-03-31T11:51:23;12.00;99.90
23748;DHT22;12054;53.662;10.126;2023-03-31T11:53:50;12.00;99.90
23748;DHT22;12054;53.662;10.126;2023-03-31T11:56:18;12.00;99.90
23748;DHT22;12054;53.662;10.126;2023-03-31T11:58:52;12.00;99.90
23748;DHT22;12054;53.662;10.126;2023-03-31T12:01:28;12.10;99.90
23748;DHT22;12054;53.662;10.126;2023-03-31T12:06:41;12.10;99.90
23748;DHT22;12054;53.662;10.126;2023-03-31T12:09:16;12.10;99.90
23748;DHT22;12054;53.662;10.126;2023-03-31T12:11:57;12.10;99.90
23748;DHT22;12054;53.662;10.126;2023-03-31T12:14:40;12.10;99.90
23748;DHT22;12054;53.662;10.126;2023-03-31T12:17:14;12.10;99.90
23748;DHT22;12054;53.662;10.126;2023-03-31T12:20:03;12.20;99.90
23748;DHT22;12054;53.662;10.126;2023-03-31T12:22:38;12.20;99.90
23748;DHT22;12054;53.662;10.126;2023-03-31T12:25:15;12.10;99.90
23748;DHT22;12054;53.662;10.126;2023-03-31T12:27:43;12.10;99.90
23748;DHT22;12054;53.662;10.126;2023-03-31T12:30:13;12.10;99.90
23748;DHT22;12054;53.662;10.126;2023-03-31T12:32:43;12.10;99.90
23748;DHT22;12054;53.662;10.126;2023-03-31T12:35:20;12.10;99.90
23748;DHT22;12054;53.662;10.126;2023-03-31T12:56:16;12.00;99.90
23748;DHT22;12054;53.662;10.126;2023-03-31T13:01:19;11.90;99.90
23748;DHT22;12054;53.662;10.126;2023-03-31T13:09:01;11.90;99.90
23748;DHT22;12054;53.662;10.126;2023-03-31T13:14:02;11.90;99.90
23748;DHT22;12054;53.662;10.126;2023-03-31T13:16:30;11.90;99.90
23748;DHT22;12054;53.662;10.126;2023-03-31T13:18:56;11.80;99.90
23748;DHT22;12054;53.662;10.126;2023-03-31T13:21:22;11.80;99.90
23748;DHT22;12054;53.662;10.126;2023-03-31T13:23:49;11.80;99.90
23748;DHT22;12054;53.662;10.126;2023-03-31T13:34:40;11.90;99.90
23748;DHT22;12054;53.662;10.126;2023-03-31T13:40:36;11.90;99.90
23748;DHT22;12054;53.662;10.126;2023-03-31T13:49:21;12.00;99.90
23748;DHT22;12054;53.662;10.126;2023-03-31T13:51:57;12.00;99.90
23748;DHT22;12054;53.662;10.126;2023-03-31T13:57:34;12.00;99.90
23748;DHT22;12054;53.662;10.126;2023-03-31T14:05:44;12.10;99.90
23748;DHT22;12054;53.662;10.126;2023-03-31T14:08:24;12.10;99.90
23748;DHT22;12054;53.662;10.126;2023-03-31T14:10:54;12.10;99.90
23748;DHT22;12054;53.662;10.126;2023-03-31T14:13:39;12.10;99.90
23748;DHT22;12054;53.662;10.126;2023-03-31T14:16:05;12.10;99.90
23748;DHT22;12054;53.662;10.126;2023-03-31T14:18:33;12.20;99.90
23748;DHT22;12054;53.662;10.126;2023-03-31T14:24:24;12.20;99.90
23748;DHT22;12054;53.662;10.126;2023-03-31T14:26:49;12.20;99.90
23748;DHT22;12054;53.662;10.126;2023-03-31T14:37:35;12.40;99.90
23748;DHT22;12054;53.662;10.126;2023-03-31T14:40:01;12.30;99.90
23748;DHT22;12054;53.662;10.126;2023-03-31T14:42:34;12.40;99.90
23748;DHT22;12054;53.662;10.126;2023-03-31T14:45:06;12.40;99.90
23748;DHT22;12054;53.662;10.126;2023-03-31T14:47:34;12.40;99.90
23748;DHT22;12054;53.662;10.126;2023-03-31T14:50:07;12.50;99.90
23748;DHT22;12054;53.662;10.126;2023-03-31T14:52:34;12.50;99.90
23748;DHT22;12054;53.662;10.126;2023-03-31T14:55:00;12.50;99.90
23748;DHT22;12054;53.662;10.126;2023-03-31T14:57:31;12.50;99.90
23748;DHT22;12054;53.662;10.126;2023-03-31T14:59:58;12.50;99.90
23748;DHT22;12054;53.662;10.126;2023-03-31T15:02:39;12.50;99.90
23748;DHT22;12054;53.662;10.126;2023-03-31T15:05:07;12.50;99.90
23748;DHT22;12054;53.662;10.126;2023-03-31T15:07:34;12.50;99.90
23748;DHT22;12054;53.662;10.126;2023-03-31T15:10:01;12.50;99.90
23748;DHT22;12054;53.662;10.126;2023-03-31T15:12:27;12.60;99.90
23748;DHT22;12054;53.662;10.126;2023-03-31T15:14:56;12.60;99.90
23748;DHT22;12054;53.662;10.126;2023-03-31T15:17:28;12.60;99.90
23748;DHT22;12054;53.662;10.126;2023-03-31T15:19:56;12.60;99.90
23748;DHT22;12054;53.662;10.126;2023-03-31T15:22:24;12.60;99.90
23748;DHT22;12054;53.662;10.126;2023-03-31T15:24:52;12.70;99.90
23748;DHT22;12054;53.662;10.126;2023-03-31T15:30:14;12.60;99.90
23748;DHT22;12054;53.662;10.126;2023-03-31T15:32:41;12.60;99.90
23748;DHT22;12054;53.662;10.126;2023-03-31T15:35:19;12.60;99.90
23748;DHT22;12054;53.662;10.126;2023-03-31T15:37:45;12.70;99.90
23748;DHT22;12054;53.662;10.126;2023-03-31T15:40:34;12.70;99.90
23748;DHT22;12054;53.662;10.126;2023-03-31T15:45:53;12.60;99.90
23748;DHT22;12054;53.662;10.126;2023-03-31T15:48:24;12.70;99.90
23748;DHT22;12054;53.662;10.126;2023-03-31T15:51:03;12.70;99.90
23748;DHT22;12054;53.662;10.126;2023-03-31T15:53:47;12.70;99.90
23748;DHT22;12054;53.662;10.126;2023-03-31T15:56:28;12.70;99.90
23748;DHT22;12054;53.662;10.126;2023-03-31T15:59:04;12.70;99.90
23748;DHT22;12054;53.662;10.126;2023-03-31T16:01:32;12.70;99.90
23748;DHT22;12054;53.662;10.126;2023-03-31T16:04:01;12.70;99.90
23748;DHT22;12054;53.662;10.126;2023-03-31T16:06:54;12.70;99.90
23748;DHT22;12054;53.662;10.126;2023-03-31T16:09:55;12.70;99.90
23748;DHT22;12054;53.662;10.126;2023-03-31T16:12:28;12.70;99.90
23748;DHT22;12054;53.662;10.126;2023-03-31T16:15:01;12.70;99.90
23748;DHT22;12054;53.662;10.126;2023-03-31T16:17:33;12.60;99.90
23748;DHT22;12054;53.662;10.126;2023-03-31T16:20:23;12.70;99.90
23748;DHT22;12054;53.662;10.126;2023-03-31T16:22:52;12.70;99.90
23748;DHT22;12054;53.662;10.126;2023-03-31T16:25:21;12.70;99.90
23748;DHT22;12054;53.662;10.126;2023-03-31T16:27:49;12.70;99.90
23748;DHT22;12054;53.662;10.126;2023-03-31T16:30:18;12.80;99.90
23748;DHT22;12054;53.662;10.126;2023-03-31T16:33:04;12.80;99.90
23748;DHT22;12054;53.662;10.126;2023-03-31T16:35:33;12.80;99.90
23748;DHT22;12054;53.662;10.126;2023-03-31T16:37:59;12.80;99.90
23748;DHT22;12054;53.662;10.126;2023-03-31T16:40:27;12.90;99.90
23748;DHT22;12054;53.662;10.126;2023-03-31T16:43:16;12.80;99.90
23748;DHT22;12054;53.662;10.126;2023-03-31T16:45:46;12.90;99.90
23748;DHT22;12054;53.662;10.126;2023-03-31T16:48:13;12.90;99.90
23748;DHT22;12054;53.662;10.126;2023-03-31T16:50:38;12.90;99.90
23748;DHT22;12054;53.662;10.126;2023-03-31T16:53:05;12.90;99.90
23748;DHT22;12054;53.662;10.126;2023-03-31T16:55:31;12.90;99.90
23748;DHT22;12054;53.662;10.126;2023-03-31T16:57:58;12.90;99.90
23748;DHT22;12054;53.662;10.126;2023-03-31T17:00:29;12.90;99.90
23748;DHT22;12054;53.662;10.126;2023-03-31T17:02:55;12.90;99.90
23748;DHT22;12054;53.662;10.126;2023-03-31T17:05:22;12.90;99.90
23748;DHT22;12054;53.662;10.126;2023-03-31T17:07:47;12.90;99.90
23748;DHT22;12054;53.662;10.126;2023-03-31T17:10:13;12.90;99.90
23748;DHT22;12054;53.662;10.126;2023-03-31T17:12:39;12.80;99.90
23748;DHT22;12054;53.662;10.126;2023-03-31T17:15:05;12.80;99.90
23748;DHT22;12054;53.662;10.126;2023-03-31T17:17:31;12.80;99.90
23748;DHT22;12054;53.662;10.126;2023-03-31T17:19:56;12.80;99.90
23748;DHT22;12054;53.662;10.126;2023-03-31T17:22:23;12.80;99.90
23748;DHT22;12054;53.662;10.126;2023-03-31T17:24:49;12.80;99.90
23748;DHT22;12054;53.662;10.126;2023-03-31T17:27:17;12.80;99.90
23748;DHT22;12054;53.662;10.126;2023-03-31T17:29:42;12.80;99.90
23748;DHT22;12054;53.662;10.126;2023-03-31T17:32:08;12.80;99.90
23748;DHT22;12054;53.662;10.126;2023-03-31T17:34:36;12.80;99.90
23748;DHT22;12054;53.662;10.126;2023-03-31T17:37:02;12.80;99.90
23748;DHT22;12054;53.662;10.126;2023-03-31T17:39:27;12.80;99.90
23748;DHT22;12054;53.662;10.126;2023-03-31T17:41:53;12.70;99.90
23748;DHT22;12054;53.662;10.126;2023-03-31T17:44:19;12.70;99.90
23748;DHT22;12054;53.662;10.126;2023-03-31T17:46:45;12.70;99.90
23748;DHT22;12054;53.662;10.126;2023-03-31T17:49:14;12.70;99.90
23748;DHT22;12054;53.662;10.126;2023-03-31T17:51:42;12.70;99.90
23748;DHT22;12054;53.662;10.126;2023-03-31T17:54:22;12.70;99.90
23748;DHT22;12054;53.662;10.126;2023-03-31T17:56:47;12.70;99.90
23748;DHT22;12054;53.662;10.126;2023-03-31T17:59:16;12.70;99.90
23748;DHT22;12054;53.662;10.126;2023-03-31T18:01:43;12.70;99.90
23748;DHT22;12054;53.662;10.126;2023-03-31T18:04:08;12.70;99.90
23748;DHT22;12054;53.662;10.126;2023-03-31T18:06:34;12.70;99.90
23748;DHT22;12054;53.662;10.126;2023-03-31T18:08:59;12.70;99.90
23748;DHT22;12054;53.662;10.126;2023-03-31T18:11:25;12.60;99.90
23748;DHT22;12054;53.662;10.126;2023-03-31T18:13:52;12.70;99.90